createdAt,value
2023-04-14T00:02:09.299Z,98486.73
2023-04-14T00:06:07.258Z,98487.09
2023-04-14T00:10:05.364Z,98484.77
2023-04-14T00:14:04.229Z,98483.66
2023-04-14T00:18:02.419Z,98482.52
2023-04-14T00:22:00.271Z,98485.05
2023-04-14T00:25:58.269Z,98487.28
2023-04-14T00:29:56.186Z,98489.72
2023-04-14T00:33:54.163Z,98488.98
2023-04-14T00:37:52.310Z,98486.79
2023-04-14T00:41:50.203Z,98483.94
2023-04-14T00:45:59.311Z,98483.02
2023-04-14T00:49:57.195Z,98477.89
2023-04-14T00:53:55.289Z,98474.69
2023-04-14T00:57:54.149Z,98474.40
2023-04-14T01:01:52.338Z,98471.52
2023-04-14T01:05:50.139Z,98472.46
2023-04-14T01:09:48.221Z,98479.30
2023-04-14T01:13:56.145Z,98484.61
2023-04-14T01:18:14.184Z,98490.58
2023-04-14T01:22:17.177Z,98489.04
2023-04-14T01:26:43.213Z,98485.59
2023-04-14T01:30:49.123Z,98486.63
2023-04-14T01:35:05.195Z,98495.08
2023-04-14T01:39:05.108Z,98493.63
2023-04-14T01:43:07.146Z,98491.02
2023-04-14T01:47:08.138Z,98492.56
2023-04-14T01:51:06.176Z,98493.83
2023-04-14T01:55:06.141Z,98496.30
2023-04-14T01:59:08.118Z,98498.50
2023-04-14T02:03:08.251Z,98499.84
2023-04-14T02:07:06.237Z,98498.79
2023-04-14T02:11:07.090Z,98499.80
2023-04-14T02:15:08.081Z,98500.89
2023-04-14T02:19:07.215Z,98499.38
2023-04-14T02:23:05.058Z,98497.67
2023-04-14T02:27:30.049Z,98497.36
2023-04-14T02:31:30.138Z,98494.52
2023-04-14T02:35:37.045Z,98492.23
2023-04-14T02:39:37.044Z,98499.86
2023-04-14T02:43:47.009Z,98500.13
2023-04-14T02:47:49.100Z,98496.06
2023-04-14T02:51:51.012Z,98496.98
2023-04-14T02:55:50.067Z,98492.71
2023-04-14T02:59:51.253Z,98490.80
2023-04-14T03:03:51.093Z,98489.34
2023-04-14T03:07:51.029Z,98487.59
2023-04-14T03:11:51.088Z,98485.42
2023-04-14T03:15:50.040Z,98491.59
2023-04-14T03:19:48.994Z,98493.29
2023-04-14T03:23:49.964Z,98500.38
2023-04-14T03:27:49.046Z,98499.66
2023-04-14T03:31:48.007Z,98502.99
2023-04-14T03:35:46.989Z,98510.59
2023-04-14T03:39:46.978Z,98507.81
2023-04-14T03:43:47.001Z,98506.23
2023-04-14T03:47:45.153Z,98509.14
2023-04-14T03:51:45.957Z,98508.15
2023-04-14T03:55:46.895Z,98514.43
2023-04-14T03:59:45.988Z,98513.56
2023-04-14T04:03:48.079Z,98518.14
2023-04-14T04:07:46.938Z,98515.30
2023-04-14T04:11:45.962Z,98522.14
2023-04-14T04:15:46.014Z,98524.79
2023-04-14T04:19:46.016Z,98525.95
2023-04-14T04:23:46.935Z,98526.98
2023-04-14T04:27:45.865Z,98525.42
2023-04-14T04:31:43.933Z,98531.88
2023-04-14T04:35:42.916Z,98527.59
2023-04-14T04:39:40.917Z,98530.23
2023-04-14T04:43:39.860Z,98533.50
2023-04-14T04:47:37.949Z,98533.46
2023-04-14T04:51:36.874Z,98536.63
2023-04-14T04:55:34.987Z,98540.01
2023-04-14T04:59:32.868Z,98543.57
2023-04-14T05:03:30.966Z,98542.10
2023-04-14T05:07:28.830Z,98541.21
2023-04-14T05:11:26.910Z,98549.83
2023-04-14T05:15:24.828Z,98546.55
2023-04-14T05:19:22.876Z,98539.68
2023-04-14T05:23:20.843Z,98543.11
2023-04-14T05:27:18.862Z,98544.76
2023-04-14T05:31:16.954Z,98542.98
2023-04-14T05:35:14.803Z,98538.14
2023-04-14T05:39:19.848Z,98541.05
2023-04-14T05:43:17.909Z,98540.43
2023-04-14T05:47:15.831Z,98544.92
2023-04-14T05:51:13.877Z,98543.40
2023-04-14T05:55:11.806Z,98540.39
2023-04-14T05:59:09.823Z,98536.34
2023-04-14T06:02:47.624Z,98542.91
2023-04-14T06:06:11.534Z,98536.06
2023-04-14T06:09:35.486Z,98534.17
2023-04-14T06:12:59.539Z,98537.83
2023-04-14T06:16:23.499Z,98537.26
2023-04-14T06:19:49.206Z,98532.70
2023-04-14T06:23:13.260Z,98530.04
2023-04-14T06:26:38.183Z,98530.29
2023-04-14T06:30:02.346Z,98527.95
2023-04-14T06:33:26.263Z,98530.77
2023-04-14T06:36:50.107Z,98529.00
2023-04-14T06:40:14.437Z,98531.12
2023-04-14T06:43:38.281Z,98532.41
2023-04-14T06:47:02.203Z,98532.75
2023-04-14T06:50:26.082Z,98537.23
2023-04-14T06:53:50.014Z,98541.62
2023-04-14T06:57:13.893Z,98545.00
2023-04-14T07:00:38.258Z,98554.71
2023-04-14T07:04:07.745Z,98555.65
2023-04-14T07:07:36.651Z,98559.33
2023-04-14T07:11:02.180Z,98557.12
2023-04-14T07:14:26.208Z,98559.48
2023-04-14T07:17:50.321Z,98562.14
2023-04-14T07:21:14.305Z,98561.10
2023-04-14T07:24:38.167Z,98556.59
2023-04-14T07:28:03.684Z,98556.59
2023-04-14T07:31:28.065Z,98554.52
2023-04-14T07:34:52.562Z,98552.39
2023-04-14T07:38:16.665Z,98557.89
2023-04-14T07:41:41.425Z,98556.14
2023-04-14T07:45:05.498Z,98553.59
2023-04-14T07:48:29.313Z,98543.60
2023-04-14T07:51:53.170Z,98547.84
2023-04-14T07:55:17.459Z,98552.02
2023-04-14T07:58:41.307Z,98555.31
2023-04-14T08:02:05.728Z,98553.29
2023-04-14T08:05:29.727Z,98552.70
2023-04-14T08:08:53.908Z,98552.47
2023-04-14T08:12:19.824Z,98551.81
2023-04-14T08:15:43.747Z,98551.00
2023-04-14T08:19:07.822Z,98552.38
2023-04-14T08:22:31.926Z,98559.15
2023-04-14T08:25:55.795Z,98554.66
2023-04-14T08:29:19.638Z,98556.92
2023-04-14T08:32:43.968Z,98556.80
2023-04-14T08:36:08.637Z,98545.52
2023-04-14T08:39:32.569Z,98548.13
2023-04-14T08:42:57.701Z,98545.71
2023-04-14T08:46:26.451Z,98542.02
2023-04-14T08:50:18.867Z,98533.07
2023-04-14T08:53:46.252Z,98533.50
2023-04-14T08:57:12.607Z,98526.15
2023-04-14T09:00:36.397Z,98528.88
2023-04-14T09:04:04.275Z,98529.80
2023-04-14T09:07:30.122Z,98526.34
2023-04-14T09:10:55.375Z,98527.52
2023-04-14T09:14:20.538Z,98525.48
2023-04-14T09:17:47.242Z,98522.02
2023-04-14T09:21:49.700Z,98518.75
2023-04-14T09:24:58.962Z,98519.02
2023-04-14T09:28:23.342Z,98508.59
2023-04-14T09:31:48.632Z,98517.64
2023-04-14T09:35:14.329Z,98510.57
2023-04-14T09:38:39.848Z,98508.40
2023-04-14T09:42:05.177Z,98505.21
2023-04-14T09:45:45.714Z,98512.40
2023-04-14T09:49:09.735Z,98498.95
2023-04-14T09:52:42.040Z,98512.13
2023-04-14T09:56:09.676Z,98514.04
2023-04-14T09:59:36.851Z,98501.88
2023-04-14T10:03:01.647Z,98505.78
2023-04-14T10:06:26.889Z,98504.00
2023-04-14T10:09:50.718Z,98501.09
2023-04-14T10:13:16.169Z,98503.14
2023-04-14T10:16:40.211Z,98494.98
2023-04-14T10:20:04.454Z,98494.20
2023-04-14T10:23:28.962Z,98488.58
2023-04-14T10:26:54.720Z,98481.80
2023-04-14T10:30:18.640Z,98486.50
2023-04-14T10:33:43.647Z,98480.15
2023-04-14T10:37:15.152Z,98475.14
2023-04-14T10:41:09.176Z,98482.78
2023-04-14T10:44:35.234Z,98477.36
2023-04-14T10:47:59.502Z,98469.72
2023-04-14T10:51:35.949Z,98470.66
2023-04-14T10:55:08.213Z,98470.75
2023-04-14T10:58:36.590Z,98471.49
2023-04-14T11:02:00.532Z,98471.44
2023-04-14T11:05:25.125Z,98473.95
2023-04-14T11:08:51.371Z,98466.19
2023-04-14T11:12:26.207Z,98465.27
2023-04-14T11:16:07.256Z,98462.37
2023-04-14T11:19:32.594Z,98453.85
2023-04-14T11:22:58.994Z,98450.73
2023-04-14T11:26:25.728Z,98451.80
2023-04-14T11:29:50.031Z,98443.75
2023-04-14T11:33:16.232Z,98437.70
2023-04-14T11:36:40.410Z,98437.36
2023-04-14T11:40:07.334Z,98431.58
2023-04-14T11:43:31.781Z,98436.64
2023-04-14T11:46:55.908Z,98434.67
2023-04-14T11:50:19.993Z,98429.52
2023-04-14T11:53:43.873Z,98426.17
2023-04-14T11:57:12.517Z,98425.33
2023-04-14T12:00:36.572Z,98414.46
2023-04-14T12:04:00.648Z,98410.45
2023-04-14T12:07:24.717Z,98410.77
2023-04-14T12:10:48.562Z,98401.56
2023-04-14T12:14:13.233Z,98407.88
2023-04-14T12:17:38.722Z,98419.27
2023-04-14T12:21:03.370Z,98408.50
2023-04-14T12:24:35.404Z,98400.83
2023-04-14T12:27:59.747Z,98387.95
2023-04-14T12:31:29.839Z,98388.23
2023-04-14T12:34:58.741Z,98380.52
2023-04-14T12:38:28.170Z,98380.54
2023-04-14T12:41:52.094Z,98380.59
2023-04-14T12:45:17.465Z,98372.86
2023-04-14T12:48:43.936Z,98378.94
2023-04-14T12:52:08.850Z,98372.62
2023-04-14T12:55:33.276Z,98374.27
2023-04-14T12:59:01.909Z,98370.99
2023-04-14T13:02:30.950Z,98364.71
2023-04-14T13:05:57.475Z,98368.33
2023-04-14T13:09:21.829Z,98366.84
2023-04-14T13:12:45.940Z,98373.27
2023-04-14T13:16:13.953Z,98367.96
2023-04-14T13:19:39.537Z,98369.37
2023-04-14T13:23:03.431Z,98373.29
2023-04-14T13:26:34.766Z,98363.57
2023-04-14T13:30:02.810Z,98368.55
2023-04-14T13:33:47.317Z,98364.14
2023-04-14T13:37:45.324Z,98369.98
2023-04-14T13:41:43.264Z,98375.84
2023-04-14T13:45:41.412Z,98366.57
2023-04-14T13:49:39.313Z,98374.68
2023-04-14T13:53:37.462Z,98377.20
2023-04-14T13:57:35.394Z,98384.50
2023-04-14T14:03:20.669Z,98379.77
2023-04-14T14:07:18.464Z,98372.48
2023-04-14T14:11:17.467Z,98375.20
2023-04-14T14:15:15.378Z,98359.70
2023-04-14T14:19:17.454Z,98362.35
2023-04-14T14:23:15.364Z,98378.10
2023-04-14T14:27:13.474Z,98366.80
2023-04-14T14:31:11.543Z,98376.48
2023-04-14T14:35:09.352Z,98372.98
2023-04-14T14:39:07.404Z,98362.09
2023-04-14T14:43:05.402Z,98373.86
2023-04-14T14:47:03.534Z,98373.42
2023-04-14T14:51:02.363Z,98383.05
2023-04-14T14:55:00.298Z,98377.92
2023-04-14T14:58:59.307Z,98370.14
2023-04-14T15:02:57.693Z,98381.33
2023-04-14T15:06:56.390Z,98381.05
2023-04-14T15:10:54.280Z,98376.61
2023-04-14T15:14:52.373Z,98364.85
2023-04-14T15:18:50.371Z,98367.08
2023-04-14T15:22:48.308Z,98370.25
2023-04-14T15:26:46.345Z,98363.86
2023-04-14T15:30:44.331Z,98372.91
2023-04-14T15:34:43.286Z,98371.02
2023-04-14T15:38:41.322Z,98377.05
2023-04-14T15:42:39.303Z,98374.27
2023-04-14T15:46:37.390Z,98377.12
2023-04-14T15:50:35.344Z,98384.16
2023-04-14T15:54:43.362Z,98377.61
2023-04-14T15:58:41.355Z,98386.08
2023-04-14T16:02:39.754Z,98380.41
2023-04-14T16:06:37.295Z,98383.11
2023-04-14T16:10:35.301Z,98391.44
2023-04-14T16:14:33.240Z,98390.86
2023-04-14T16:18:31.309Z,98391.38
2023-04-14T16:22:29.272Z,98400.30
2023-04-14T16:26:27.232Z,98406.51
2023-04-14T16:30:25.202Z,98401.30
2023-04-14T16:34:25.239Z,98410.38
2023-04-14T16:38:23.289Z,98408.63
2023-04-14T16:42:25.258Z,98409.87
2023-04-14T16:46:24.365Z,98414.44
2023-04-14T16:50:24.263Z,98418.63
2023-04-14T16:54:22.187Z,98420.24
2023-04-14T16:58:20.212Z,98415.43
2023-04-14T17:02:18.290Z,98426.75
2023-04-14T17:06:16.166Z,98429.04
2023-04-14T17:10:14.266Z,98437.83
2023-04-14T17:14:12.186Z,98444.10
2023-04-14T17:18:10.341Z,98446.38
2023-04-14T17:22:08.131Z,98454.31
2023-04-14T17:26:06.167Z,98458.77
2023-04-14T17:30:04.206Z,98453.52
2023-04-14T17:34:02.402Z,98466.42
2023-04-14T17:38:00.115Z,98469.63
2023-04-14T17:41:58.329Z,98474.18
2023-04-14T17:45:57.131Z,98469.34
2023-04-14T17:49:55.107Z,98479.55
2023-04-14T17:53:54.280Z,98485.59
2023-04-14T17:57:57.073Z,98484.08
2023-04-14T18:01:55.145Z,98479.61
2023-04-14T18:05:55.177Z,98477.80
2023-04-14T18:09:53.097Z,98480.95
2023-04-14T18:13:51.138Z,98483.72
2023-04-14T18:17:49.112Z,98482.17
2023-04-14T18:21:48.068Z,98478.80
2023-04-14T18:29:50.114Z,98494.85
2023-04-14T18:33:49.134Z,98503.70
2023-04-14T18:37:47.078Z,98496.23
2023-04-14T18:41:45.081Z,98497.70
2023-04-14T18:45:43.053Z,98509.88
2023-04-14T18:49:41.138Z,98508.30
2023-04-14T18:53:40.275Z,98499.91
2023-04-14T18:57:39.137Z,98514.34
2023-04-14T19:01:37.056Z,98511.85
2023-04-14T19:05:36.043Z,98510.23
2023-04-14T19:09:34.026Z,98507.90
2023-04-14T19:13:35.089Z,98502.28
2023-04-14T19:17:33.021Z,98501.06
2023-04-14T19:21:32.043Z,98496.53
2023-04-14T19:25:31.065Z,98496.42
2023-04-14T19:29:29.323Z,98478.73
2023-04-14T19:33:27.048Z,98469.18
2023-04-14T19:37:26.103Z,98496.75
2023-04-14T19:41:23.969Z,98490.33
2023-04-14T19:45:22.094Z,98492.54
2023-04-14T19:49:20.030Z,98494.03
2023-04-14T19:53:17.987Z,98492.48
2023-04-14T19:57:17.946Z,98500.48
2023-04-14T20:01:16.084Z,98503.16
2023-04-14T20:05:14.010Z,98506.70
2023-04-14T20:09:12.029Z,98499.75
2023-04-14T20:13:09.970Z,98492.21
2023-04-14T20:17:08.040Z,98490.23
2023-04-14T20:21:05.930Z,98485.27
2023-04-14T20:25:04.016Z,98494.13
2023-04-14T20:29:03.251Z,98493.65
2023-04-14T20:33:00.975Z,98497.84
2023-04-14T20:37:01.905Z,98503.48
2023-04-14T20:40:59.952Z,98504.14
2023-04-14T20:44:57.906Z,98510.69
2023-04-14T20:48:55.887Z,98507.66
2023-04-14T20:52:53.890Z,98507.31
2023-04-14T20:56:51.874Z,98506.11
2023-04-14T21:00:49.897Z,98499.80
2023-04-14T21:04:48.029Z,98498.54
2023-04-14T21:08:46.886Z,98501.70
2023-04-14T21:15:00.370Z,98495.27
2023-04-14T21:17:02.865Z,98497.63
2023-04-14T21:21:00.923Z,98500.16
2023-04-14T21:24:58.873Z,98491.45
2023-04-14T21:28:56.958Z,98500.04
2023-04-14T21:32:54.901Z,98494.26
2023-04-14T21:36:53.856Z,98499.42
2023-04-14T21:40:51.912Z,98502.25
2023-04-14T21:44:49.966Z,98496.63
2023-04-14T21:48:47.789Z,98506.15
2023-04-14T21:52:45.822Z,98513.56
2023-04-14T21:56:44.795Z,98515.33
2023-04-14T22:00:43.854Z,98516.22
2023-04-14T22:04:41.827Z,98517.87
2023-04-14T22:08:40.899Z,98513.32
2023-04-14T22:12:38.811Z,98509.16
2023-04-14T22:16:36.948Z,98510.89
2023-04-14T22:20:34.739Z,98503.50
2023-04-14T22:24:32.877Z,98503.27
2023-04-14T22:28:30.760Z,98509.63
2023-04-14T22:32:28.839Z,98508.23
2023-04-14T22:36:26.785Z,98503.03
2023-04-14T22:40:24.770Z,98507.08
2023-04-14T22:44:22.727Z,98511.50
2023-04-14T22:48:21.782Z,98508.86
2023-04-14T22:52:19.728Z,98504.95
2023-04-14T22:56:17.804Z,98506.71
2023-04-14T23:00:15.701Z,98509.02
2023-04-14T23:04:13.797Z,98505.81
2023-04-14T23:08:11.769Z,98506.38
2023-04-14T23:12:09.721Z,98504.27
2023-04-14T23:16:07.749Z,98505.25
2023-04-14T23:20:05.690Z,98502.84
2023-04-14T23:24:04.683Z,98502.13
2023-04-14T23:28:02.798Z,98500.03
2023-04-14T23:32:00.738Z,98496.12
2023-04-14T23:35:58.727Z,98490.14
2023-04-14T23:39:56.694Z,98493.95
2023-04-14T23:43:55.701Z,98490.43
2023-04-14T23:47:53.741Z,98489.69
2023-04-14T23:51:51.659Z,98486.39
2023-04-14T23:55:49.640Z,98487.84
2023-04-14T23:59:47.673Z,98484.82
